createdAt,value
2023-04-18T00:00:24.760Z,95103.25
2023-04-18T00:03:16.251Z,95104.30
2023-04-18T00:05:47.366Z,95105.43
2023-04-18T00:08:15.359Z,95103.15
2023-04-18T00:10:43.545Z,95101.63
2023-04-18T00:13:12.239Z,95104.90
2023-04-18T00:15:41.970Z,95105.91
2023-04-18T00:18:10.579Z,95104.54
2023-04-18T00:20:39.342Z,95099.64
2023-04-18T00:23:07.922Z,95103.81
2023-04-18T00:25:35.830Z,95100.48
2023-04-18T00:28:03.780Z,95102.54
2023-04-18T00:30:31.868Z,95106.11
2023-04-18T00:33:00.017Z,95103.48
2023-04-18T00:35:27.968Z,95104.45
2023-04-18T00:37:56.032Z,95104.81
2023-04-18T00:40:24.414Z,95106.05
2023-04-18T00:42:52.319Z,95105.33
2023-04-18T00:45:20.623Z,95107.70
2023-04-18T00:47:48.702Z,95110.68
2023-04-18T00:50:16.811Z,95110.45
2023-04-18T00:52:44.804Z,95115.33
2023-04-18T00:55:12.980Z,95113.06
2023-04-18T00:57:41.838Z,95114.83
2023-04-18T01:00:10.274Z,95117.26
2023-04-18T01:02:39.814Z,95116.26
2023-04-18T01:05:08.846Z,95113.64
2023-04-18T01:07:40.826Z,95116.86
2023-04-18T01:10:10.362Z,95115.07
2023-04-18T01:12:38.321Z,95115.24
2023-04-18T01:15:06.721Z,95116.29
2023-04-18T01:17:35.802Z,95114.09
2023-04-18T01:20:06.325Z,95112.88
2023-04-18T01:22:34.270Z,95117.54
2023-04-18T01:25:07.084Z,95119.33
2023-04-18T01:27:35.080Z,95116.67
2023-04-18T01:30:03.220Z,95111.88
2023-04-18T01:32:31.188Z,95115.67
2023-04-18T01:34:59.175Z,95116.41
2023-04-18T01:37:27.897Z,95116.16
2023-04-18T01:39:58.323Z,95115.55
2023-04-18T01:42:26.191Z,95117.51
2023-04-18T01:44:54.120Z,95112.98
2023-04-18T01:47:22.215Z,95109.89
2023-04-18T01:49:50.096Z,95105.81
2023-04-18T01:52:18.142Z,95100.52
2023-04-18T01:54:46.110Z,95097.75
2023-04-18T01:57:14.034Z,95090.95
2023-04-18T01:59:42.029Z,95084.29
2023-04-18T02:02:11.502Z,95084.55
2023-04-18T02:04:39.491Z,95081.75
2023-04-18T02:07:07.347Z,95086.25
2023-04-18T02:09:35.230Z,95088.27
2023-04-18T02:12:04.490Z,95093.47
2023-04-18T02:14:33.617Z,95095.39
2023-04-18T02:17:01.706Z,95101.94
2023-04-18T02:19:30.217Z,95104.46
2023-04-18T02:21:58.205Z,95102.98
2023-04-18T02:24:26.191Z,95103.63
2023-04-18T02:26:54.079Z,95099.45
2023-04-18T02:29:22.140Z,95097.41
2023-04-18T02:31:50.061Z,95096.64
2023-04-18T02:34:18.293Z,95100.13
2023-04-18T02:36:49.504Z,95099.83
2023-04-18T02:39:17.503Z,95098.30
2023-04-18T02:41:45.450Z,95098.75
2023-04-18T02:44:13.505Z,95096.37
2023-04-18T02:46:42.949Z,95095.17
2023-04-18T02:49:13.330Z,95091.64
2023-04-18T02:51:41.219Z,95094.18
2023-04-18T02:54:09.641Z,95097.98
2023-04-18T02:57:01.426Z,95095.77
2023-04-18T02:59:42.478Z,95094.86
2023-04-18T03:02:42.823Z,95092.98
2023-04-18T03:05:37.060Z,95095.23
2023-04-18T03:08:06.040Z,95095.17
2023-04-18T03:10:35.322Z,95090.67
2023-04-18T03:13:03.322Z,95086.78
2023-04-18T03:15:31.573Z,95085.69
2023-04-18T03:17:59.630Z,95086.75
2023-04-18T03:20:28.998Z,95096.75
2023-04-18T03:22:56.917Z,95095.42
2023-04-18T03:25:26.265Z,95099.91
2023-04-18T03:27:54.469Z,95100.50
2023-04-18T03:30:23.454Z,95096.48
2023-04-18T03:32:59.678Z,95098.42
2023-04-18T03:35:27.671Z,95104.28
2023-04-18T03:37:55.809Z,95096.16
2023-04-18T03:40:30.419Z,95105.64
2023-04-18T03:43:02.753Z,95102.92
2023-04-18T03:45:30.750Z,95098.41
2023-04-18T03:47:58.785Z,95098.77
2023-04-18T03:50:27.129Z,95102.80
2023-04-18T03:52:55.819Z,95107.31
2023-04-18T03:55:23.852Z,95106.30
2023-04-18T03:57:51.900Z,95107.21
2023-04-18T04:00:25.933Z,95115.65
2023-04-18T04:02:59.569Z,95114.74
2023-04-18T04:05:27.994Z,95115.88
2023-04-18T04:07:56.668Z,95114.28
2023-04-18T04:10:24.775Z,95115.73
2023-04-18T04:12:52.918Z,95116.46
2023-04-18T04:15:21.096Z,95120.85
2023-04-18T04:17:56.929Z,95123.51
2023-04-18T04:20:25.864Z,95122.41
2023-04-18T04:23:01.344Z,95129.27
2023-04-18T04:25:29.807Z,95133.17
2023-04-18T04:28:01.581Z,95137.66
2023-04-18T04:30:29.930Z,95134.23
2023-04-18T04:32:58.354Z,95131.90
2023-04-18T04:35:26.807Z,95131.59
2023-04-18T04:37:54.955Z,95133.37
2023-04-18T04:40:31.321Z,95140.26
2023-04-18T04:43:06.727Z,95145.02
2023-04-18T04:45:41.578Z,95147.40
2023-04-18T04:48:09.899Z,95147.47
2023-04-18T04:50:38.941Z,95147.38
2023-04-18T04:53:07.285Z,95152.33
2023-04-18T04:55:35.601Z,95153.41
2023-04-18T04:58:04.730Z,95153.81
2023-04-18T05:00:52.725Z,95152.14
2023-04-18T05:03:21.614Z,95147.04
2023-04-18T05:05:49.801Z,95144.20
2023-04-18T05:08:17.897Z,95140.32
2023-04-18T05:10:46.180Z,95141.50
2023-04-18T05:13:14.175Z,95137.08
2023-04-18T05:15:42.198Z,95142.44
2023-04-18T05:18:10.267Z,95146.51
2023-04-18T05:20:38.457Z,95145.29
2023-04-18T05:23:06.544Z,95149.01
2023-04-18T05:25:34.796Z,95146.89
2023-04-18T05:28:04.951Z,95149.12
2023-04-18T05:30:32.872Z,95159.76
2023-04-18T05:33:01.059Z,95160.63
2023-04-18T05:35:29.553Z,95167.27
2023-04-18T05:37:58.245Z,95165.50
2023-04-18T05:40:27.562Z,95167.36
2023-04-18T05:42:55.702Z,95172.77
2023-04-18T05:45:23.891Z,95178.29
2023-04-18T05:47:54.054Z,95171.70
2023-04-18T05:50:23.269Z,95175.52
2023-04-18T05:52:51.295Z,95166.42
2023-04-18T05:55:19.547Z,95166.31
2023-04-18T05:57:47.553Z,95172.67
2023-04-18T06:00:17.138Z,95172.66
2023-04-18T06:02:45.688Z,95172.22
2023-04-18T06:05:14.135Z,95172.30
2023-04-18T06:07:42.768Z,95174.38
2023-04-18T06:10:13.685Z,95171.67
2023-04-18T06:12:42.670Z,95178.33
2023-04-18T06:15:11.422Z,95181.08
2023-04-18T06:17:39.626Z,95185.91
2023-04-18T06:20:08.200Z,95181.33
2023-04-18T06:22:36.559Z,95172.35
2023-04-18T06:25:05.097Z,95168.83
2023-04-18T06:27:33.019Z,95169.17
2023-04-18T06:30:00.970Z,95172.52
2023-04-18T06:32:29.180Z,95169.40
2023-04-18T06:34:57.439Z,95169.68
2023-04-18T06:37:25.859Z,95169.67
2023-04-18T06:39:53.959Z,95169.98
2023-04-18T06:42:22.708Z,95166.42
2023-04-18T06:44:50.923Z,95168.19
2023-04-18T06:47:18.891Z,95169.63
2023-04-18T06:49:46.972Z,95169.45
2023-04-18T06:52:14.975Z,95170.27
2023-04-18T06:54:43.481Z,95169.64
2023-04-18T06:57:11.702Z,95171.27
2023-04-18T06:59:41.641Z,95164.63
2023-04-18T07:02:11.294Z,95171.14
2023-04-18T07:04:39.748Z,95174.23
2023-04-18T07:07:08.212Z,95173.20
2023-04-18T07:09:36.187Z,95170.77
2023-04-18T07:12:04.451Z,95168.55
2023-04-18T07:14:34.190Z,95164.98
2023-04-18T07:17:03.125Z,95164.33
2023-04-18T07:19:31.540Z,95166.13
2023-04-18T07:21:59.513Z,95165.76
2023-04-18T07:24:27.578Z,95165.67
2023-04-18T07:26:56.194Z,95167.09
2023-04-18T07:29:24.134Z,95170.16
2023-04-18T07:31:52.301Z,95167.15
2023-04-18T07:34:22.126Z,95165.27
2023-04-18T07:36:50.190Z,95164.80
2023-04-18T07:39:18.259Z,95166.64
2023-04-18T07:41:46.228Z,95164.39
2023-04-18T07:44:14.662Z,95167.27
2023-04-18T07:46:42.979Z,95164.48
2023-04-18T07:49:11.188Z,95172.59
2023-04-18T07:51:40.876Z,95173.13
2023-04-18T07:54:11.277Z,95168.61
2023-04-18T07:56:39.342Z,95169.16
2023-04-18T07:59:07.886Z,95166.92
2023-04-18T08:01:35.973Z,95169.23
2023-04-18T08:04:04.487Z,95169.13
2023-04-18T08:06:33.631Z,95170.38
2023-04-18T08:09:05.786Z,95169.98
2023-04-18T08:11:33.950Z,95172.45
2023-04-18T08:14:02.233Z,95175.01
2023-04-18T08:16:30.432Z,95175.48
2023-04-18T08:18:58.646Z,95174.57
2023-04-18T08:21:27.062Z,95176.80
2023-04-18T08:23:55.292Z,95178.40
2023-04-18T08:26:23.451Z,95171.90
2023-04-18T08:28:51.848Z,95170.69
2023-04-18T08:31:19.884Z,95168.38
2023-04-18T08:33:47.843Z,95168.66
2023-04-18T08:36:16.217Z,95169.48
2023-04-18T08:38:44.192Z,95170.53
2023-04-18T08:41:12.407Z,95167.83
2023-04-18T08:43:40.583Z,95172.09
2023-04-18T08:46:09.444Z,95173.53
2023-04-18T08:48:38.667Z,95172.56
2023-04-18T08:51:07.422Z,95173.70
2023-04-18T08:53:36.076Z,95176.10
2023-04-18T08:56:05.634Z,95172.89
2023-04-18T08:58:34.973Z,95171.34
2023-04-18T09:01:03.690Z,95168.73
2023-04-18T09:03:40.164Z,95169.73
2023-04-18T09:06:12.617Z,95167.61
2023-04-18T09:08:44.029Z,95167.61
2023-04-18T09:11:29.240Z,95168.04
2023-04-18T09:13:59.159Z,95168.73
2023-04-18T09:16:27.972Z,95170.33
2023-04-18T09:19:10.560Z,95167.64
2023-04-18T09:21:39.774Z,95165.20
2023-04-18T09:24:26.457Z,95166.47
2023-04-18T09:26:56.138Z,95164.20
2023-04-18T09:29:51.933Z,95161.01
2023-04-18T09:32:25.075Z,95158.70
2023-04-18T09:34:58.132Z,95163.02
2023-04-18T09:37:26.794Z,95156.73
2023-04-18T09:39:55.192Z,95158.28
2023-04-18T09:42:24.090Z,95158.94
2023-04-18T09:45:03.977Z,95155.30
2023-04-18T09:47:35.128Z,95157.52
2023-04-18T09:50:04.600Z,95156.74
2023-04-18T09:52:36.290Z,95150.31
2023-04-18T09:55:05.495Z,95151.77
2023-04-18T09:57:34.432Z,95156.30
2023-04-18T10:00:10.708Z,95148.86
2023-04-18T10:02:50.512Z,95148.63
2023-04-18T10:05:21.143Z,95142.30
2023-04-18T10:07:50.050Z,95145.14
2023-04-18T10:10:18.240Z,95142.24
2023-04-18T10:12:48.184Z,95142.10
2023-04-18T10:15:17.355Z,95137.31
2023-04-18T10:18:02.832Z,95133.44
2023-04-18T10:20:33.518Z,95139.17
2023-04-18T10:23:21.665Z,95142.44
2023-04-18T10:25:50.823Z,95140.23
2023-04-18T10:28:21.059Z,95141.02
2023-04-18T10:30:49.985Z,95143.35
2023-04-18T10:33:30.539Z,95143.17
2023-04-18T10:36:02.095Z,95136.63
2023-04-18T10:38:30.195Z,95137.06
2023-04-18T10:41:14.160Z,95139.10
2023-04-18T10:44:01.077Z,95136.70
2023-04-18T10:46:32.520Z,95134.38
2023-04-18T10:49:19.506Z,95127.36
2023-04-18T10:51:49.589Z,95128.14
2023-04-18T10:54:21.044Z,95123.98
2023-04-18T10:56:56.662Z,95129.15
2023-04-18T10:59:26.897Z,95129.73
2023-04-18T11:01:56.964Z,95133.16
2023-04-18T11:04:25.863Z,95130.14
2023-04-18T11:06:58.525Z,95128.85
2023-04-18T11:09:26.499Z,95129.20
2023-04-18T11:12:06.178Z,95126.08
2023-04-18T11:14:41.678Z,95126.25
2023-04-18T11:17:19.927Z,95125.02
2023-04-18T11:19:48.798Z,95125.65
2023-04-18T11:22:17.883Z,95122.58
2023-04-18T11:24:46.206Z,95123.16
2023-04-18T11:27:14.266Z,95118.89
2023-04-18T11:29:42.331Z,95125.81
2023-04-18T11:32:10.687Z,95122.27
2023-04-18T11:34:38.721Z,95119.64
2023-04-18T11:37:08.143Z,95119.77
2023-04-18T11:39:42.917Z,95120.85
2023-04-18T11:42:11.518Z,95118.65
2023-04-18T11:44:44.024Z,95117.54
2023-04-18T11:47:25.211Z,95114.05
2023-04-18T11:49:57.559Z,95117.45
2023-04-18T11:52:29.364Z,95119.05
2023-04-18T11:55:10.049Z,95120.09
2023-04-18T11:57:37.991Z,95110.33
2023-04-18T12:00:10.179Z,95106.30
2023-04-18T12:02:41.606Z,95102.00
2023-04-18T12:05:15.183Z,95103.88
2023-04-18T12:07:45.146Z,95097.59
2023-04-18T12:10:22.582Z,95097.16
2023-04-18T12:12:51.918Z,95100.38
2023-04-18T12:15:21.883Z,95093.08
2023-04-18T12:17:52.796Z,95096.23
2023-04-18T12:20:25.031Z,95097.88
2023-04-18T12:22:55.136Z,95090.91
2023-04-18T12:25:27.726Z,95088.36
2023-04-18T12:28:02.547Z,95091.44
2023-04-18T12:30:32.244Z,95090.25
2023-04-18T12:33:01.840Z,95087.67
2023-04-18T12:35:31.192Z,95089.44
2023-04-18T12:38:00.330Z,95084.48
2023-04-18T12:40:29.893Z,95083.96
2023-04-18T12:42:57.891Z,95084.81
2023-04-18T12:45:26.100Z,95078.69
2023-04-18T12:47:54.127Z,95078.33
2023-04-18T12:50:23.765Z,95074.92
2023-04-18T12:52:55.971Z,95078.47
2023-04-18T12:55:24.476Z,95075.09
2023-04-18T12:57:56.035Z,95067.52
2023-04-18T13:00:25.600Z,95068.61
2023-04-18T13:02:53.787Z,95072.71
2023-04-18T13:05:22.771Z,95073.23
2023-04-18T13:07:56.273Z,95077.44
2023-04-18T13:10:30.015Z,95076.14
2023-04-18T13:12:58.037Z,95074.85
2023-04-18T13:15:27.693Z,95075.25
2023-04-18T13:18:04.580Z,95070.90
2023-04-18T13:20:33.303Z,95073.68
2023-04-18T13:23:04.157Z,95070.46
2023-04-18T13:25:32.262Z,95071.26
2023-04-18T13:28:01.157Z,95059.88
2023-04-18T13:30:29.356Z,95057.10
2023-04-18T13:32:57.263Z,95057.52
2023-04-18T13:35:25.242Z,95061.48
2023-04-18T13:37:53.350Z,95061.16
2023-04-18T13:40:21.348Z,95062.66
2023-04-18T13:42:49.349Z,95056.23
2023-04-18T13:45:17.430Z,95058.29
2023-04-18T13:47:45.529Z,95061.17
2023-04-18T13:50:13.636Z,95060.67
2023-04-18T13:52:41.512Z,95060.66
2023-04-18T13:55:10.770Z,95058.09
2023-04-18T13:57:38.852Z,95060.35
2023-04-18T14:00:07.423Z,95053.85
2023-04-18T14:02:40.669Z,95054.78
2023-04-18T14:05:09.364Z,95052.48
2023-04-18T14:07:38.540Z,95055.45
2023-04-18T14:10:06.741Z,95046.45
2023-04-18T14:12:34.955Z,95052.33
2023-04-18T14:15:03.243Z,95047.66
2023-04-18T14:17:31.479Z,95048.44
2023-04-18T14:19:59.421Z,95045.10
2023-04-18T14:22:27.430Z,95045.17
2023-04-18T14:24:56.276Z,95042.44
2023-04-18T14:27:26.214Z,95038.39
2023-04-18T14:29:54.443Z,95037.45
2023-04-18T14:32:22.672Z,95035.98
2023-04-18T14:34:50.787Z,95040.80
2023-04-18T14:37:18.808Z,95044.16
2023-04-18T14:39:47.188Z,95042.30
2023-04-18T14:42:16.207Z,95040.52
2023-04-18T14:44:44.236Z,95039.60
2023-04-18T14:47:12.253Z,95040.88
2023-04-18T14:49:40.170Z,95038.73
2023-04-18T14:52:08.090Z,95040.98
2023-04-18T14:54:36.259Z,95045.43
2023-04-18T14:57:04.195Z,95044.32
2023-04-18T14:59:32.225Z,95039.77
2023-04-18T15:02:00.187Z,95040.06
2023-04-18T15:04:28.451Z,95038.20
2023-04-18T15:06:57.026Z,95037.63
2023-04-18T15:09:25.059Z,95038.02
2023-04-18T15:11:54.331Z,95039.42
2023-04-18T15:14:22.460Z,95040.05
2023-04-18T15:16:50.597Z,95037.18
2023-04-18T15:19:18.688Z,95039.40
2023-04-18T15:21:46.662Z,95042.04
2023-04-18T15:24:15.183Z,95040.23
2023-04-18T15:26:43.381Z,95039.67
2023-04-18T15:29:11.452Z,95037.98
2023-04-18T15:31:39.488Z,95041.75
2023-04-18T15:34:08.148Z,95038.60
2023-04-18T15:36:36.201Z,95040.88
2023-04-18T15:39:05.742Z,95040.59
2023-04-18T15:41:34.953Z,95038.96
2023-04-18T15:44:03.975Z,95042.56
2023-04-18T15:46:32.629Z,95047.08
2023-04-18T15:49:00.762Z,95048.10
2023-04-18T15:51:30.313Z,95053.19
2023-04-18T15:53:58.395Z,95050.95
2023-04-18T15:56:27.362Z,95051.02
2023-04-18T15:58:56.299Z,95050.83
2023-04-18T16:01:24.385Z,95053.28
2023-04-18T16:03:52.324Z,95050.64
2023-04-18T16:06:23.609Z,95055.30
2023-04-18T16:08:51.560Z,95054.65
2023-04-18T16:11:20.220Z,95056.23
2023-04-18T16:13:48.205Z,95055.70
2023-04-18T16:16:16.262Z,95058.04
2023-04-18T16:18:44.213Z,95057.60
2023-04-18T16:21:15.958Z,95060.52
2023-04-18T16:23:43.892Z,95057.39
2023-04-18T16:26:11.758Z,95056.21
2023-04-18T16:28:39.734Z,95057.89
2023-04-18T16:31:07.727Z,95056.84
2023-04-18T16:33:35.816Z,95057.91
2023-04-18T16:36:04.645Z,95057.08
2023-04-18T16:38:32.690Z,95055.79
2023-04-18T16:41:01.780Z,95055.05
2023-04-18T16:43:36.477Z,95054.11
2023-04-18T16:46:04.964Z,95055.21
2023-04-18T16:48:32.853Z,95057.10
2023-04-18T16:51:00.966Z,95054.30
2023-04-18T16:53:28.868Z,95056.64
2023-04-18T16:55:56.787Z,95057.80
2023-04-18T16:58:24.809Z,95063.41
2023-04-18T17:00:52.929Z,95060.25
2023-04-18T17:03:21.101Z,95064.77
2023-04-18T17:05:49.426Z,95066.77
2023-04-18T17:08:17.455Z,95066.70
2023-04-18T17:10:45.455Z,95065.41
2023-04-18T17:13:13.752Z,95067.08
2023-04-18T17:15:43.001Z,95066.05
2023-04-18T17:18:10.922Z,95069.04
2023-04-18T17:20:39.022Z,95067.22
2023-04-18T17:23:06.965Z,95070.23
2023-04-18T17:25:34.876Z,95067.42
2023-04-18T17:28:02.972Z,95065.82
2023-04-18T17:30:31.501Z,95068.10
2023-04-18T17:32:59.546Z,95068.81
2023-04-18T17:35:27.787Z,95069.89
2023-04-18T17:37:55.806Z,95069.08
2023-04-18T17:40:23.746Z,95072.48
2023-04-18T17:42:51.830Z,95073.16
2023-04-18T17:45:22.834Z,95073.02
2023-04-18T17:47:51.037Z,95075.02
2023-04-18T17:50:18.962Z,95076.60
2023-04-18T17:52:47.012Z,95078.55
2023-04-18T17:55:15.822Z,95079.30
2023-04-18T17:57:43.728Z,95083.57
2023-04-18T18:00:13.820Z,95082.34
2023-04-18T18:02:42.811Z,95079.37
2023-04-18T18:05:13.362Z,95078.53
2023-04-18T18:07:46.044Z,95079.52
2023-04-18T18:10:15.862Z,95077.74
2023-04-18T18:12:43.787Z,95079.85
2023-04-18T18:15:12.323Z,95078.33
2023-04-18T18:17:40.453Z,95076.02
2023-04-18T18:20:11.926Z,95079.86
2023-04-18T18:22:39.945Z,95072.70
2023-04-18T18:25:08.118Z,95070.94
2023-04-18T18:27:36.549Z,95070.81
2023-04-18T18:30:04.852Z,95070.04
2023-04-18T18:32:32.804Z,95067.11
2023-04-18T18:35:01.972Z,95071.72
2023-04-18T18:37:29.994Z,95070.09
2023-04-18T18:39:58.730Z,95071.30
2023-04-18T18:42:26.865Z,95073.83
2023-04-18T18:44:57.758Z,95072.00
2023-04-18T18:47:25.832Z,95073.11
2023-04-18T18:49:53.775Z,95071.94
2023-04-18T18:52:24.129Z,95070.79
2023-04-18T18:54:52.917Z,95067.42
2023-04-18T18:57:21.434Z,95070.48
2023-04-18T18:59:53.856Z,95071.31
2023-04-18T19:02:23.417Z,95066.21
2023-04-18T19:04:51.677Z,95066.27
2023-04-18T19:07:19.726Z,95069.63
2023-04-18T19:09:47.672Z,95065.33
2023-04-18T19:12:16.235Z,95070.89
2023-04-18T19:14:44.950Z,95066.06
2023-04-18T19:17:13.126Z,95069.42
2023-04-18T19:19:42.121Z,95070.47
2023-04-18T19:22:10.002Z,95071.36
2023-04-18T19:24:37.911Z,95070.88
2023-04-18T19:27:05.862Z,95072.67
2023-04-18T19:29:36.064Z,95070.15
2023-04-18T19:32:04.259Z,95073.40
2023-04-18T19:34:32.518Z,95069.09
2023-04-18T19:37:01.354Z,95070.30
2023-04-18T19:39:29.539Z,95069.23
2023-04-18T19:41:57.432Z,95071.44
2023-04-18T19:44:25.417Z,95073.96
2023-04-18T19:46:53.362Z,95076.06
2023-04-18T19:49:22.545Z,95074.43
2023-04-18T19:51:52.577Z,95073.46
2023-04-18T19:54:22.061Z,95071.70
2023-04-18T19:56:50.388Z,95071.83
2023-04-18T19:59:18.526Z,95072.59
2023-04-18T20:01:46.670Z,95073.73
2023-04-18T20:04:14.911Z,95071.77
2023-04-18T20:06:43.008Z,95077.36
2023-04-18T20:09:15.751Z,95075.15
2023-04-18T20:11:43.857Z,95079.14
2023-04-18T20:14:11.836Z,95077.27
2023-04-18T20:16:42.757Z,95079.41
2023-04-18T20:19:12.692Z,95081.39
2023-04-18T20:21:41.267Z,95082.70
2023-04-18T20:24:09.773Z,95080.61
2023-04-18T20:26:37.675Z,95081.30
2023-04-18T20:29:05.633Z,95081.40
2023-04-18T20:31:33.578Z,95079.95
2023-04-18T20:34:01.463Z,95076.45
2023-04-18T20:36:31.088Z,95077.90
2023-04-18T20:39:02.389Z,95075.16
2023-04-18T20:41:32.162Z,95076.17
2023-04-18T20:44:00.421Z,95071.37
2023-04-18T20:46:28.370Z,95075.91
2023-04-18T20:48:56.269Z,95074.34
2023-04-18T20:51:24.374Z,95070.15
2023-04-18T20:53:52.353Z,95070.09
2023-04-18T20:56:20.340Z,95068.22
2023-04-18T20:58:48.430Z,95070.66
2023-04-18T21:01:16.386Z,95069.80
2023-04-18T21:03:44.639Z,95069.31
2023-04-18T21:06:13.064Z,95072.55
2023-04-18T21:08:41.133Z,95073.68
2023-04-18T21:11:09.120Z,95071.05
2023-04-18T21:13:37.111Z,95064.92
2023-04-18T21:16:07.956Z,95062.71
2023-04-18T21:18:36.630Z,95061.86
2023-04-18T21:21:04.572Z,95059.10
2023-04-18T21:23:32.472Z,95063.55
2023-04-18T21:26:00.681Z,95064.02
2023-04-18T21:28:28.697Z,95061.23
2023-04-18T21:30:56.678Z,95058.42
2023-04-18T21:33:26.302Z,95061.30
2023-04-18T21:35:54.268Z,95057.04
2023-04-18T21:38:25.553Z,95058.56
2023-04-18T21:40:53.477Z,95059.92
2023-04-18T21:43:21.534Z,95055.45
2023-04-18T21:45:49.749Z,95055.63
2023-04-18T21:48:17.718Z,95058.45
2023-04-18T21:50:45.657Z,95057.73
2023-04-18T21:53:13.572Z,95056.34
2023-04-18T21:55:41.513Z,95057.09
2023-04-18T21:58:09.370Z,95057.45
2023-04-18T22:00:37.250Z,95059.11
2023-04-18T22:03:05.679Z,95054.24
2023-04-18T22:05:33.781Z,95055.12
2023-04-18T22:08:03.456Z,95057.11
2023-04-18T22:10:31.420Z,95053.96
2023-04-18T22:13:00.265Z,95051.44
2023-04-18T22:15:28.135Z,95052.08
2023-04-18T22:17:56.627Z,95054.27
2023-04-18T22:20:27.038Z,95052.64
2023-04-18T22:22:55.035Z,95052.39
2023-04-18T22:25:23.033Z,95051.78
2023-04-18T22:27:50.994Z,95048.16
2023-04-18T22:30:18.909Z,95051.40
2023-04-18T22:32:47.435Z,95049.35
2023-04-18T22:35:15.954Z,95052.09
2023-04-18T22:37:44.010Z,95045.41
2023-04-18T22:40:12.945Z,95048.68
2023-04-18T22:42:40.794Z,95046.40
2023-04-18T22:45:09.159Z,95042.01
2023-04-18T22:47:37.205Z,95040.34
2023-04-18T22:50:05.518Z,95036.90
2023-04-18T22:52:34.146Z,95033.39
2023-04-18T22:55:02.750Z,95031.55
2023-04-18T22:57:30.814Z,95029.98
2023-04-18T22:59:58.781Z,95033.66
2023-04-18T23:02:26.916Z,95029.21
2023-04-18T23:04:58.459Z,95029.05
2023-04-18T23:07:26.451Z,95027.58
2023-04-18T23:09:54.430Z,95026.98
2023-04-18T23:12:22.532Z,95024.73
2023-04-18T23:14:50.595Z,95023.51
2023-04-18T23:17:18.552Z,95026.77
2023-04-18T23:19:46.574Z,95025.96
2023-04-18T23:22:14.839Z,95024.30
2023-04-18T23:24:42.943Z,95024.07
2023-04-18T23:27:10.827Z,95018.92
2023-04-18T23:29:39.278Z,95020.11
2023-04-18T23:32:07.235Z,95016.90
2023-04-18T23:34:35.245Z,95009.95
2023-04-18T23:37:03.251Z,95007.79
2023-04-18T23:39:31.301Z,95008.13
2023-04-18T23:41:59.794Z,95004.14
2023-04-18T23:44:27.782Z,95003.34
2023-04-18T23:46:55.837Z,95001.75
2023-04-18T23:49:23.819Z,95002.09
2023-04-18T23:51:51.972Z,94997.00
2023-04-18T23:54:20.230Z,94993.66
2023-04-18T23:56:48.219Z,94990.83
2023-04-18T23:59:16.146Z,94994.68
